createdAt,value
2022-09-11T00:01:15.999Z,0.90
2022-09-11T00:03:45.727Z,0.93
2022-09-11T00:06:27.420Z,0.80
2022-09-11T00:09:00.650Z,1.03
2022-09-11T00:11:30.626Z,1.17
2022-09-11T00:13:58.284Z,0.82
2022-09-11T00:16:31.017Z,0.90
2022-09-11T00:18:59.807Z,0.85
2022-09-11T00:21:27.379Z,0.82
2022-09-11T00:23:54.138Z,1.07
2022-09-11T00:26:22.034Z,0.90
2022-09-11T00:28:50.703Z,0.90
2022-09-11T00:31:20.225Z,0.73
2022-09-11T00:33:47.163Z,0.73
2022-09-11T00:36:17.237Z,1.00
2022-09-11T00:38:45.774Z,1.05
2022-09-11T00:41:38.277Z,0.90
2022-09-11T00:44:09.045Z,0.70
2022-09-11T00:46:44.739Z,1.00
2022-09-11T00:49:32.626Z,0.68
2022-09-11T00:52:17.879Z,1.07
2022-09-11T00:54:46.919Z,1.10
2022-09-11T00:57:13.886Z,0.80
2022-09-11T00:59:44.038Z,1.00
2022-09-11T01:02:15.268Z,0.90
2022-09-11T01:04:42.019Z,1.13
2022-09-11T01:07:11.019Z,1.10
2022-09-11T01:09:37.898Z,1.00
2022-09-11T01:12:18.591Z,1.07
2022-09-11T01:15:01.310Z,0.90
2022-09-11T01:17:34.022Z,0.90
2022-09-11T01:20:19.319Z,0.85
2022-09-11T01:23:08.059Z,1.53
2022-09-11T01:26:02.750Z,0.73
2022-09-11T01:28:44.217Z,0.87
2022-09-11T01:31:17.123Z,1.23
2022-09-11T01:33:50.986Z,0.80
2022-09-11T01:36:22.373Z,0.83
2022-09-11T01:38:59.172Z,0.83
2022-09-11T01:41:36.927Z,0.80
2022-09-11T01:44:10.510Z,0.80
2022-09-11T01:46:46.180Z,1.07
2022-09-11T01:49:33.917Z,0.90
2022-09-11T01:52:03.432Z,1.00
2022-09-11T01:54:42.314Z,0.90
2022-09-11T01:57:25.564Z,1.00
2022-09-11T01:59:58.957Z,1.50
2022-09-11T02:02:33.344Z,1.20
2022-09-11T02:05:09.384Z,1.10
2022-09-11T02:07:45.789Z,1.00
2022-09-11T02:10:20.133Z,0.90
2022-09-11T02:12:53.499Z,1.00
2022-09-11T02:15:23.298Z,1.03
2022-09-11T02:18:20.098Z,1.00
2022-09-11T02:20:47.675Z,1.30
2022-09-11T02:23:17.731Z,1.30
2022-09-11T02:25:44.619Z,1.20
2022-09-11T02:28:12.161Z,1.07
2022-09-11T02:30:42.933Z,1.20
2022-09-11T02:33:29.347Z,0.80
2022-09-11T02:36:19.372Z,1.10
2022-09-11T02:38:59.564Z,1.00
2022-09-11T02:41:46.521Z,1.47
2022-09-11T02:44:38.020Z,1.73
2022-09-11T02:47:15.055Z,0.90
2022-09-11T02:49:51.542Z,0.77
2022-09-11T02:52:54.622Z,0.90
2022-09-11T02:55:33.223Z,1.17
2022-09-11T02:58:15.789Z,0.87
2022-09-11T03:00:44.417Z,1.00
2022-09-11T03:03:11.353Z,1.00
2022-09-11T03:05:40.296Z,0.90
2022-09-11T03:08:07.770Z,0.80
2022-09-11T03:10:34.781Z,1.08
2022-09-11T03:13:01.643Z,1.10
2022-09-11T03:15:31.741Z,1.27
2022-09-11T03:17:58.546Z,1.00
2022-09-11T03:20:25.343Z,0.70
2022-09-11T03:22:52.081Z,0.90
2022-09-11T03:25:18.802Z,1.00
2022-09-11T03:27:47.287Z,1.13
2022-09-11T03:30:14.264Z,1.20
2022-09-11T03:32:41.094Z,0.90
2022-09-11T03:35:08.200Z,0.83
2022-09-11T03:37:37.339Z,1.30
2022-09-11T03:40:04.931Z,1.13
2022-09-11T03:42:33.422Z,0.80
2022-09-11T03:45:00.505Z,0.90
2022-09-11T03:47:27.444Z,0.80
2022-09-11T03:49:56.070Z,0.90
2022-09-11T03:52:23.139Z,1.03
2022-09-11T03:54:50.393Z,1.40
2022-09-11T03:57:17.251Z,0.90
2022-09-11T03:59:44.008Z,1.40
2022-09-11T04:02:10.768Z,0.83
2022-09-11T04:04:37.509Z,0.80
2022-09-11T04:07:05.107Z,0.97
2022-09-11T04:09:32.572Z,0.60
2022-09-11T04:11:59.383Z,1.13
2022-09-11T04:14:28.787Z,0.87
2022-09-11T04:16:57.933Z,1.00
2022-09-11T04:19:25.673Z,1.20
2022-09-11T04:21:53.477Z,1.00
2022-09-11T04:24:21.287Z,0.93
2022-09-11T04:26:48.149Z,0.93
2022-09-11T04:29:22.589Z,0.87
2022-09-11T04:31:51.335Z,0.90
2022-09-11T04:34:18.442Z,1.20
2022-09-11T04:36:45.246Z,1.10
2022-09-11T04:39:15.674Z,0.90
2022-09-11T04:41:44.459Z,0.90
2022-09-11T04:44:11.307Z,1.00
2022-09-11T04:46:42.965Z,1.10
2022-09-11T04:49:11.542Z,1.10
2022-09-11T04:51:42.228Z,1.20
2022-09-11T04:54:18.009Z,1.07
2022-09-11T04:56:45.659Z,1.20
2022-09-11T04:59:16.386Z,1.10
2022-09-11T05:01:52.223Z,1.20
2022-09-11T05:04:22.902Z,0.87
2022-09-11T05:06:52.262Z,1.00
2022-09-11T05:09:20.054Z,0.88
2022-09-11T05:11:48.210Z,0.80
2022-09-11T05:14:16.140Z,0.90
2022-09-11T05:16:46.110Z,1.07
2022-09-11T05:19:15.597Z,0.80
2022-09-11T05:21:44.493Z,1.20
2022-09-11T05:24:11.623Z,1.00
2022-09-11T05:26:40.654Z,1.23
2022-09-11T05:29:14.040Z,1.00
2022-09-11T05:31:48.477Z,0.93
2022-09-11T05:34:18.630Z,0.80
2022-09-11T05:36:45.932Z,1.17
2022-09-11T05:39:12.822Z,1.20
2022-09-11T05:41:40.202Z,0.87
2022-09-11T05:44:07.490Z,1.03
2022-09-11T05:46:36.710Z,1.10
2022-09-11T05:49:03.832Z,1.27
2022-09-11T05:51:30.698Z,1.00
2022-09-11T05:53:58.889Z,1.03
2022-09-11T05:56:28.298Z,1.20
2022-09-11T05:58:59.402Z,1.00
2022-09-11T06:01:34.436Z,1.05
2022-09-11T06:04:11.390Z,1.50
2022-09-11T06:06:40.101Z,1.00
2022-09-11T06:09:07.682Z,1.30
2022-09-11T06:11:35.079Z,1.15
2022-09-11T06:14:02.635Z,1.20
2022-09-11T06:16:31.535Z,1.03
2022-09-11T06:19:05.775Z,1.33
2022-09-11T06:21:32.555Z,1.07
2022-09-11T06:24:06.122Z,1.10
2022-09-11T06:26:35.475Z,1.03
2022-09-11T06:29:03.108Z,1.38
2022-09-11T06:31:30.915Z,0.98
2022-09-11T06:33:58.235Z,1.10
2022-09-11T06:36:35.403Z,1.20
2022-09-11T06:39:06.930Z,1.38
2022-09-11T06:41:35.125Z,1.20
2022-09-11T06:44:07.220Z,1.13
2022-09-11T06:46:35.413Z,1.20
2022-09-11T06:49:02.793Z,1.30
2022-09-11T06:51:30.450Z,1.30
2022-09-11T06:54:02.383Z,1.10
2022-09-11T06:56:33.333Z,1.20
2022-09-11T06:59:01.116Z,1.20
2022-09-11T07:01:29.461Z,1.63
2022-09-11T07:04:02.684Z,1.15
2022-09-11T07:06:32.062Z,1.30
2022-09-11T07:09:02.626Z,1.10
2022-09-11T07:11:51.748Z,1.23
2022-09-11T07:14:23.380Z,0.90
2022-09-11T07:16:55.907Z,1.85
2022-09-11T07:19:25.540Z,0.90
2022-09-11T07:21:52.228Z,0.90
2022-09-11T07:24:20.773Z,1.10
2022-09-11T07:26:48.693Z,0.90
2022-09-11T07:29:22.347Z,0.68
2022-09-11T07:31:50.250Z,1.17
2022-09-11T07:34:16.981Z,1.10
2022-09-11T07:36:44.691Z,0.93
2022-09-11T07:39:12.494Z,1.20
2022-09-11T07:42:01.964Z,1.00
2022-09-11T07:44:32.519Z,1.13
2022-09-11T07:47:00.780Z,1.00
2022-09-11T07:49:28.307Z,1.08
2022-09-11T07:51:55.466Z,0.88
2022-09-11T07:54:34.877Z,1.50
2022-09-11T07:57:03.309Z,1.00
2022-09-11T07:59:31.043Z,1.00
2022-09-11T08:01:59.542Z,1.00
2022-09-11T08:04:26.283Z,1.10
2022-09-11T08:06:53.801Z,0.70
2022-09-11T08:09:27.174Z,1.08
2022-09-11T08:11:58.574Z,0.80
2022-09-11T08:14:27.365Z,0.95
2022-09-11T08:16:57.448Z,1.00
2022-09-11T08:19:27.145Z,1.10
2022-09-11T08:21:56.288Z,1.02
2022-09-11T08:24:24.448Z,0.95
2022-09-11T08:26:57.261Z,0.90
2022-09-11T08:29:26.166Z,1.08
2022-09-11T08:31:53.817Z,0.90
2022-09-11T08:34:22.371Z,0.98
2022-09-11T08:36:50.709Z,1.00
2022-09-11T08:39:17.567Z,0.90
2022-09-11T08:42:08.969Z,1.00
2022-09-11T08:44:51.420Z,1.00
2022-09-11T08:47:46.085Z,1.00
2022-09-11T08:50:26.855Z,1.10
2022-09-11T08:52:55.439Z,1.27
2022-09-11T08:55:40.403Z,1.20
2022-09-11T08:58:12.663Z,1.00
2022-09-11T09:01:07.143Z,1.10
2022-09-11T09:03:43.585Z,0.90
2022-09-11T09:06:17.006Z,1.13
2022-09-11T09:09:00.796Z,0.85
2022-09-11T09:11:42.552Z,1.30
2022-09-11T09:14:40.157Z,1.00
2022-09-11T09:17:09.051Z,1.23
2022-09-11T09:19:47.951Z,1.20
2022-09-11T09:23:06.355Z,1.20
2022-09-11T09:25:40.118Z,1.40
2022-09-11T09:28:11.612Z,1.50
2022-09-11T09:31:03.923Z,1.70
2022-09-11T09:33:52.688Z,1.25
2022-09-11T09:36:24.965Z,1.42
2022-09-11T09:38:53.868Z,1.48
2022-09-11T09:41:43.656Z,1.10
2022-09-11T09:44:42.993Z,1.05
2022-09-11T09:47:14.544Z,1.20
2022-09-11T09:49:43.346Z,1.75
2022-09-11T09:52:25.308Z,1.73
2022-09-11T09:55:00.151Z,1.90
2022-09-11T09:57:37.253Z,1.75
2022-09-11T10:00:10.013Z,1.67
2022-09-11T10:02:53.891Z,1.60
2022-09-11T10:05:34.842Z,1.80
2022-09-11T10:08:04.717Z,1.90
2022-09-11T10:10:38.236Z,2.20
2022-09-11T10:13:20.974Z,2.40
2022-09-11T10:16:02.296Z,2.45
2022-09-11T10:18:29.275Z,3.13
2022-09-11T10:21:24.234Z,2.30
2022-09-11T10:23:57.122Z,2.90
2022-09-11T10:26:30.207Z,2.75
2022-09-11T10:29:08.211Z,2.75
2022-09-11T10:31:39.287Z,3.00
2022-09-11T10:34:07.538Z,2.72
2022-09-11T10:36:35.169Z,2.78
2022-09-11T10:39:02.539Z,2.50
2022-09-11T10:41:34.303Z,2.60
2022-09-11T10:44:11.159Z,2.47
2022-09-11T10:46:39.814Z,2.58
2022-09-11T10:49:06.514Z,2.63
2022-09-11T10:51:39.070Z,2.40
2022-09-11T10:54:34.615Z,2.97
2022-09-11T10:57:01.589Z,3.05
2022-09-11T10:59:58.390Z,2.78
2022-09-11T11:02:29.707Z,2.40
2022-09-11T11:05:00.245Z,2.20
2022-09-11T11:07:53.817Z,2.42
2022-09-11T11:10:31.177Z,2.40
2022-09-11T11:13:08.107Z,2.67
2022-09-11T11:15:41.448Z,2.90
2022-09-11T11:18:35.766Z,3.10
2022-09-11T11:21:29.969Z,3.30
2022-09-11T11:24:22.353Z,3.45
2022-09-11T11:26:49.283Z,3.67
2022-09-11T11:29:50.672Z,4.43
2022-09-11T11:32:27.985Z,3.72
2022-09-11T11:35:01.283Z,3.42
2022-09-11T11:37:39.442Z,4.20
2022-09-11T11:40:56.909Z,3.72
2022-09-11T11:43:28.986Z,3.38
2022-09-11T11:46:05.325Z,2.72
2022-09-11T11:48:39.634Z,2.53
2022-09-11T11:51:15.340Z,2.40
2022-09-11T11:53:55.476Z,2.55
2022-09-11T11:56:33.276Z,2.30
2022-09-11T11:59:12.894Z,2.50
2022-09-11T12:02:03.430Z,2.10
2022-09-11T12:04:43.862Z,2.17
2022-09-11T12:07:30.461Z,2.28
2022-09-11T12:10:00.182Z,2.20
2022-09-11T12:12:31.261Z,2.22
2022-09-11T12:15:07.727Z,2.47
2022-09-11T12:17:40.225Z,2.05
2022-09-11T12:20:10.102Z,2.53
2022-09-11T12:22:42.626Z,2.30
2022-09-11T12:25:21.626Z,2.35
2022-09-11T12:27:52.795Z,2.88
2022-09-11T12:30:20.615Z,3.17
2022-09-11T12:33:01.332Z,3.22
2022-09-11T12:35:32.990Z,3.72
2022-09-11T12:38:14.966Z,3.53
2022-09-11T12:40:59.888Z,3.17
2022-09-11T12:43:30.785Z,2.88
2022-09-11T12:45:57.778Z,2.90
2022-09-11T12:49:21.708Z,2.30
2022-09-11T12:51:55.993Z,2.30
2022-09-11T12:54:31.640Z,2.15
2022-09-11T12:57:03.027Z,2.30
2022-09-11T12:59:43.784Z,2.15
2022-09-11T13:02:51.840Z,1.90
2022-09-11T13:05:36.477Z,2.30
2022-09-11T13:08:07.629Z,2.05
2022-09-11T13:10:39.328Z,2.17
2022-09-11T13:13:35.522Z,2.20
2022-09-11T13:16:24.150Z,2.10
2022-09-11T13:18:53.817Z,2.33
2022-09-11T13:21:25.718Z,2.15
2022-09-11T13:23:53.220Z,1.95
2022-09-11T13:26:31.568Z,1.80
2022-09-11T13:29:01.351Z,2.30
2022-09-11T13:31:34.933Z,1.80
2022-09-11T13:34:06.151Z,1.55
2022-09-11T13:36:36.164Z,1.80
2022-09-11T13:39:04.396Z,2.38
2022-09-11T13:41:36.852Z,2.00
2022-09-11T13:44:11.064Z,1.63
2022-09-11T13:46:50.309Z,1.60
2022-09-11T13:49:29.229Z,1.58
2022-09-11T13:51:56.365Z,1.42
2022-09-11T13:54:38.484Z,1.50
2022-09-11T13:57:13.394Z,1.33
2022-09-11T13:59:49.340Z,1.75
2022-09-11T14:02:34.705Z,1.50
2022-09-11T14:05:13.852Z,1.35
2022-09-11T14:07:57.271Z,1.45
2022-09-11T14:10:25.638Z,1.52
2022-09-11T14:13:23.221Z,1.10
2022-09-11T14:15:55.569Z,1.30
2022-09-11T14:18:28.023Z,1.50
2022-09-11T14:20:56.409Z,1.67
2022-09-11T14:23:28.732Z,1.58
2022-09-11T14:26:16.559Z,1.65
2022-09-11T14:28:50.473Z,1.52
2022-09-11T14:31:47.024Z,1.58
2022-09-11T14:34:18.679Z,1.77
2022-09-11T14:36:56.477Z,1.50
2022-09-11T14:39:36.001Z,1.60
2022-09-11T14:42:07.161Z,1.90
2022-09-11T14:44:35.660Z,1.50
2022-09-11T14:47:02.544Z,1.50
2022-09-11T14:49:29.699Z,1.63
2022-09-11T14:51:58.858Z,1.77
2022-09-11T14:54:31.154Z,1.75
2022-09-11T14:57:01.246Z,1.38
2022-09-11T14:59:30.803Z,1.45
2022-09-11T15:01:58.717Z,1.63
2022-09-11T15:04:25.757Z,1.75
2022-09-11T15:06:55.841Z,1.60
2022-09-11T15:09:24.726Z,2.22
2022-09-11T15:11:52.444Z,2.00
2022-09-11T15:14:44.658Z,2.83
2022-09-11T15:17:11.074Z,2.20
2022-09-11T15:19:38.242Z,2.03
2022-09-11T15:22:06.992Z,1.80
2022-09-11T15:24:34.743Z,2.10
2022-09-11T15:27:01.450Z,2.25
2022-09-11T15:29:31.594Z,1.83
2022-09-11T15:31:59.836Z,1.90
2022-09-11T15:34:27.274Z,1.75
2022-09-11T15:36:54.169Z,2.08
2022-09-11T15:39:21.519Z,1.90
2022-09-11T15:41:48.230Z,1.77
2022-09-11T15:44:23.370Z,1.73
2022-09-11T15:46:52.381Z,2.10
2022-09-11T15:49:21.741Z,1.55
2022-09-11T15:51:49.519Z,1.60
2022-09-11T15:54:16.797Z,1.60
2022-09-11T15:56:43.817Z,1.73
2022-09-11T15:59:12.156Z,2.00
2022-09-11T16:01:39.484Z,1.98
2022-09-11T16:04:12.507Z,1.77
2022-09-11T16:06:43.114Z,1.70
2022-09-11T16:09:14.286Z,2.28
2022-09-11T16:11:41.452Z,2.20
2022-09-11T16:14:15.488Z,2.08
2022-09-11T16:16:42.243Z,2.20
2022-09-11T16:19:09.232Z,2.00
2022-09-11T16:21:35.971Z,1.60
2022-09-11T16:24:04.763Z,1.88
2022-09-11T16:26:31.723Z,1.73
2022-09-11T16:28:58.638Z,1.73
2022-09-11T16:31:25.641Z,2.05
2022-09-11T16:33:55.197Z,1.80
2022-09-11T16:36:22.599Z,1.73
2022-09-11T16:38:50.309Z,2.00
2022-09-11T16:41:21.945Z,1.42
2022-09-11T16:43:51.721Z,1.70
2022-09-11T16:46:24.289Z,1.50
2022-09-11T16:48:54.398Z,1.73
2022-09-11T16:51:23.494Z,1.60
2022-09-11T16:53:50.615Z,1.40
2022-09-11T16:56:20.173Z,1.70
2022-09-11T16:58:47.462Z,1.80
2022-09-11T17:01:17.132Z,1.73
2022-09-11T17:03:46.408Z,1.70
2022-09-11T17:06:14.623Z,1.80
2022-09-11T17:08:43.353Z,1.77
2022-09-11T17:11:14.386Z,1.90
2022-09-11T17:13:43.454Z,1.80
2022-09-11T17:16:16.416Z,1.73
2022-09-11T17:18:49.136Z,1.90
2022-09-11T17:21:16.448Z,2.03
2022-09-11T17:23:43.719Z,1.90
2022-09-11T17:26:13.490Z,1.80
2022-09-11T17:28:41.902Z,1.92
2022-09-11T17:31:11.280Z,2.17
2022-09-11T17:33:40.244Z,1.90
2022-09-11T17:36:09.993Z,1.83
2022-09-11T17:38:38.630Z,1.80
2022-09-11T17:41:07.485Z,1.45
2022-09-11T17:43:36.508Z,1.83
2022-09-11T17:46:05.701Z,1.80
2022-09-11T17:48:33.107Z,1.63
2022-09-11T17:51:07.275Z,1.60
2022-09-11T17:53:38.562Z,1.73
2022-09-11T17:56:14.626Z,2.22
2022-09-11T17:58:42.681Z,1.90
2022-09-11T18:01:13.657Z,1.95
2022-09-11T18:03:43.563Z,1.70
2022-09-11T18:06:37.236Z,1.63
2022-09-11T18:09:16.138Z,1.90
2022-09-11T18:11:45.218Z,1.77
2022-09-11T18:14:13.769Z,1.60
2022-09-11T18:16:43.697Z,1.80
2022-09-11T18:19:12.087Z,2.00
2022-09-11T18:21:38.904Z,2.15
2022-09-11T18:24:06.461Z,1.90
2022-09-11T18:26:39.868Z,1.63
2022-09-11T18:29:10.498Z,1.70
2022-09-11T18:31:43.155Z,1.80
2022-09-11T18:34:18.622Z,2.00
2022-09-11T18:36:45.442Z,2.50
2022-09-11T18:39:14.311Z,1.95
2022-09-11T18:41:41.211Z,1.90
2022-09-11T18:44:15.169Z,2.00
2022-09-11T18:46:45.963Z,2.13
2022-09-11T18:49:16.212Z,1.98
2022-09-11T18:51:43.693Z,2.10
2022-09-11T18:54:16.058Z,2.00
2022-09-11T18:56:43.429Z,1.75
2022-09-11T18:59:12.278Z,2.20
2022-09-11T19:01:40.033Z,2.00
2022-09-11T19:04:10.229Z,1.85
2022-09-11T19:06:41.267Z,2.10
2022-09-11T19:09:10.494Z,2.20
2022-09-11T19:11:37.986Z,2.40
2022-09-11T19:14:07.241Z,1.65
2022-09-11T19:16:34.966Z,1.90
2022-09-11T19:19:02.981Z,1.90
2022-09-11T19:21:30.243Z,2.07
2022-09-11T19:24:00.625Z,3.70
2022-09-11T19:26:33.361Z,2.00
2022-09-11T19:29:00.668Z,2.07
2022-09-11T19:31:29.895Z,2.10
2022-09-11T19:34:00.346Z,2.40
2022-09-11T19:36:30.032Z,2.50
2022-09-11T19:39:00.569Z,2.57
2022-09-11T19:41:30.425Z,2.03
2022-09-11T19:44:03.587Z,2.27
2022-09-11T19:46:31.896Z,1.80
2022-09-11T19:49:02.856Z,2.23
2022-09-11T19:51:31.854Z,2.47
2022-09-11T19:54:00.881Z,2.20
2022-09-11T19:56:28.857Z,2.50
2022-09-11T19:58:55.975Z,2.13
2022-09-11T20:01:24.733Z,2.50
2022-09-11T20:03:53.789Z,2.43
2022-09-11T20:06:23.277Z,2.67
2022-09-11T20:08:59.170Z,2.57
2022-09-11T20:11:38.470Z,2.33
2022-09-11T20:14:05.485Z,2.80
2022-09-11T20:16:32.702Z,2.67
2022-09-11T20:19:06.638Z,2.40
2022-09-11T20:21:35.463Z,2.60
2022-09-11T20:24:06.250Z,2.33
2022-09-11T20:26:34.304Z,2.93
2022-09-11T20:29:10.630Z,3.13
2022-09-11T20:31:46.558Z,2.63
2022-09-11T20:34:16.392Z,2.40
2022-09-11T20:36:43.284Z,2.50
2022-09-11T20:39:13.794Z,3.37
2022-09-11T20:41:40.973Z,2.70
2022-09-11T20:44:08.612Z,2.50
2022-09-11T20:46:35.645Z,2.17
2022-09-11T20:49:03.441Z,2.23
2022-09-11T20:51:30.981Z,2.40
2022-09-11T20:53:57.754Z,2.10
2022-09-11T20:56:24.769Z,2.07
2022-09-11T20:58:51.947Z,2.37
2022-09-11T21:01:21.848Z,2.43
2022-09-11T21:03:56.931Z,2.17
2022-09-11T21:06:26.671Z,2.30
2022-09-11T21:08:55.930Z,2.63
2022-09-11T21:11:25.008Z,2.17
2022-09-11T21:13:52.108Z,2.53
2022-09-11T21:16:19.936Z,2.57
2022-09-11T21:18:52.642Z,2.43
2022-09-11T21:21:20.670Z,2.00
2022-09-11T21:23:48.220Z,3.30
2022-09-11T21:26:16.862Z,2.50
2022-09-11T21:28:44.319Z,2.40
2022-09-11T21:31:11.695Z,2.30
2022-09-11T21:33:38.986Z,2.30
2022-09-11T21:36:06.251Z,2.30
2022-09-11T21:38:33.931Z,2.13
2022-09-11T21:41:03.461Z,2.37
2022-09-11T21:43:30.763Z,2.70
2022-09-11T21:45:57.492Z,2.57
2022-09-11T21:48:24.322Z,3.17
2022-09-11T21:50:51.622Z,3.47
2022-09-11T21:53:19.107Z,2.50
2022-09-11T21:55:47.140Z,2.60
2022-09-11T21:58:20.126Z,2.30
2022-09-11T22:00:48.588Z,2.30
2022-09-11T22:03:17.246Z,2.60
2022-09-11T22:05:45.926Z,2.50
2022-09-11T22:08:14.614Z,2.80
2022-09-11T22:10:42.960Z,3.00
2022-09-11T22:13:12.893Z,2.50
2022-09-11T22:15:42.258Z,2.87
2022-09-11T22:18:09.490Z,2.70
2022-09-11T22:20:40.995Z,2.73
2022-09-11T22:23:13.378Z,3.17
2022-09-11T22:25:40.882Z,3.03
2022-09-11T22:28:08.484Z,2.73
2022-09-11T22:30:35.362Z,2.80
2022-09-11T22:33:02.367Z,2.80
2022-09-11T22:35:29.224Z,2.80
2022-09-11T22:37:55.922Z,2.57
2022-09-11T22:40:22.588Z,2.13
2022-09-11T22:42:49.951Z,2.20
2022-09-11T22:45:17.197Z,2.40
2022-09-11T22:47:43.911Z,2.73
2022-09-11T22:50:10.928Z,2.70
2022-09-11T22:52:37.899Z,2.80
2022-09-11T22:55:06.380Z,2.60
2022-09-11T22:57:36.000Z,3.17
2022-09-11T23:00:05.795Z,3.07
2022-09-11T23:02:32.484Z,2.97
2022-09-11T23:05:17.728Z,2.90
2022-09-11T23:07:44.914Z,3.40
2022-09-11T23:10:11.932Z,2.50
2022-09-11T23:12:38.902Z,2.83
2022-09-11T23:15:06.714Z,2.20
2022-09-11T23:17:33.681Z,2.50
2022-09-11T23:20:00.711Z,2.57
2022-09-11T23:22:27.478Z,2.83
2022-09-11T23:24:54.198Z,2.60
2022-09-11T23:27:21.240Z,2.80
2022-09-11T23:29:47.896Z,3.00
2022-09-11T23:32:14.713Z,3.10
2022-09-11T23:34:41.413Z,3.10
2022-09-11T23:37:08.174Z,2.53
2022-09-11T23:39:35.017Z,2.43
2022-09-11T23:42:01.801Z,2.70
2022-09-11T23:44:28.509Z,2.93
2022-09-11T23:46:55.215Z,2.60
2022-09-11T23:49:21.909Z,2.23
2022-09-11T23:51:50.233Z,2.20
2022-09-11T23:54:16.910Z,2.50
2022-09-11T23:56:44.461Z,2.20
2022-09-11T23:59:11.801Z,2.20
